Norfolk — WDG2147 — position and weather

sailwx.info

Track history (hours):
 
Tides and Currents Weather Stations Pressure Air Temp Water Temp Dewpoint Dewpoint Depression Visibility Wind Speed Wind Dir Waves Ship Positions

Norfolk

Owner: Virginia Pilot Boat Corporation, Virginia Beach, VA. More information available from US FCC via Universal Licensing System and Coast Guard Vessel Documentation Center.

Last reported at 2016-Aug-24 07:23 UTC. Time now 2016-Aug-24 08:33 UTC.
Position N 36°55' W 076°05'.

Length 18 m; draft 1.5 m.

Type: Pilot. MMSI: 367512630.

Date/timePositionNaut miles runAvg speedWind from/ knotsBaromVisibWave heightAir tempDewpointWater temp
2016-Aug-24 07:23N 36°55' W 076°05'1 0.1
2016-Aug-23 21:27N 36°56' W 076°05'6 6.4
2016-Aug-23 20:27N 36°56' W 075°57'7 1.8
2016-Aug-23 16:33N 36°54' W 076°05'0 0.0
2016-Aug-23 15:33N 36°54' W 076°05'0 0.0
2016-Aug-23 14:33N 36°54' W 076°05'0 0.0
2016-Aug-23 13:33N 36°54' W 076°05'0 0.0
2016-Aug-23 12:33N 36°54' W 076°05'0 0.0
2016-Aug-23 11:33N 36°54' W 076°05'0 0.0
2016-Aug-23 10:33N 36°54' W 076°05'0 0.0
2016-Aug-23 08:11N 36°54' W 076°05'2 0.2
2016-Aug-22 23:33N 36°56' W 076°04'2 0.5
2016-Aug-22 20:12N 36°54' W 076°05'0 0.0
2016-Aug-22 12:32N 36°54' W 076°06'0 0.1
2016-Aug-22 11:25N 36°54' W 076°05'1 0.5
2016-Aug-22 08:19N 36°56' W 076°04'1 0.1
2016-Aug-21 20:31N 36°54' W 076°05'0 0.0
2016-Aug-21 19:13N 36°54' W 076°05'4 5.8
2016-Aug-21 18:32N 36°56' W 076°01'1 0.2
2016-Aug-21 14:32N 36°57' W 076°01'4 0.3
2016-Aug-21 00:24N 36°55' W 076°05'3 3.6
2016-Aug-20 23:28N 36°56' W 076°01'4 4.0
2016-Aug-20 22:26N 36°54' W 076°05'6 2.0
2016-Aug-20 19:24N 36°55' W 075°58'6 3.2
2016-Aug-20 17:30N 36°54' W 076°05'0 0.0
2016-Aug-20 16:33N 36°54' W 076°05'0 0.0
2016-Aug-20 15:33N 36°54' W 076°05'0 0.0
2016-Aug-20 14:32N 36°54' W 076°05'0 0.0
2016-Aug-20 13:32N 36°54' W 076°05'0 0.0
2016-Aug-20 12:32N 36°54' W 076°05'0 0.0
2016-Aug-20 07:31N 36°54' W 076°05'0 0.0
2016-Aug-20 06:18N 36°54' W 076°05'0 0.0
2016-Aug-19 23:27N 36°54' W 076°05'0 0.0
2016-Aug-19 21:33N 36°54' W 076°05'0 0.0
2016-Aug-19 20:31N 36°54' W 076°05'0 0.0
2016-Aug-19 19:33N 36°54' W 076°05'0 0.0
2016-Aug-19 18:29N 36°54' W 076°05'0 0.0
2016-Aug-19 17:15N 36°54' W 076°05'0 0.0
2016-Aug-19 16:23N 36°54' W 076°05'0 0.0
2016-Aug-19 15:11N 36°54' W 076°05'0 0.0
2016-Aug-19 14:16N 36°54' W 076°05'0 0.0
2016-Aug-19 13:17N 36°54' W 076°05'0 0.0
2016-Aug-19 12:32N 36°54' W 076°05'0 0.0
2016-Aug-19 11:27N 36°54' W 076°05'0 0.0
2016-Aug-19 09:19N 36°54' W 076°05'0 0.0
2016-Aug-19 07:23N 36°54' W 076°05'1 1.1
2016-Aug-19 06:23N 36°55' W 076°05'1 0.1
2016-Aug-18 19:26N 36°54' W 076°05'9 9.6
2016-Aug-18 18:30N 36°55' W 075°54'9 1.8
2016-Aug-18 13:31N 36°55' W 076°05'0 0.1
2016-Aug-18 12:32N 36°55' W 076°05'1 0.9
2016-Aug-18 11:33N 36°54' W 076°05'0 0.0
2016-Aug-18 10:33N 36°54' W 076°05'0 0.0
2016-Aug-18 04:26N 36°54' W 076°05'0 0.0
2016-Aug-18 03:31N 36°54' W 076°05'0 0.0
2016-Aug-18 01:29N 36°54' W 076°05'0 0.0
2016-Aug-18 00:17N 36°54' W 076°05'0 0.0
2016-Aug-17 23:33N 36°54' W 076°05'0 0.0
2016-Aug-17 22:32N 36°54' W 076°05'0 0.0
2016-Aug-17 21:33N 36°54' W 076°05'0 0.0
2016-Aug-17 20:32N 36°54' W 076°05'0 0.0
2016-Aug-17 19:33N 36°54' W 076°05'0 0.0
2016-Aug-17 18:33N 36°54' W 076°05'0 0.0
2016-Aug-17 17:33N 36°54' W 076°05'0 0.0
2016-Aug-17 16:33N 36°54' W 076°05'0 0.0
2016-Aug-17 15:33N 36°54' W 076°05'0 0.0
2016-Aug-17 14:33N 36°54' W 076°05'0 0.0
2016-Aug-17 13:29N 36°54' W 076°05'0 0.0
2016-Aug-17 12:33N 36°54' W 076°05'0 0.0
2016-Aug-17 11:32N 36°54' W 076°05'0 0.0
2016-Aug-16 22:23N 36°54' W 076°05'4 4.0
2016-Aug-16 21:29N 36°57' W 076°02'4 0.9
2016-Aug-16 17:16N 36°54' W 076°05'0 0.0
2016-Aug-16 13:19N 36°54' W 076°05'3 2.9
2016-Aug-16 12:25N 36°56' W 076°03'3 3.1
2016-Aug-16 11:33N 36°54' W 076°05'0 0.0
2016-Aug-16 10:33N 36°54' W 076°05'0 0.0
2016-Aug-16 07:11N 36°54' W 076°05'0 0.0
2016-Aug-16 01:13N 36°54' W 076°05'0 0.0
2016-Aug-15 20:07N 36°54' W 076°05'0 0.0
2016-Aug-14 19:28N 36°54' W 076°05'4 4.0
2016-Aug-14 18:32N 36°56' W 076°01'4 0.7
2016-Aug-14 13:21N 36°54' W 076°05'0 0.4
2016-Aug-14 12:33N 36°55' W 076°05'0 0.4
2016-Aug-14 11:30N 36°54' W 076°05'1 0.9
2016-Aug-14 10:33N 36°55' W 076°05'  
Track history (hours):
 
Tides and Currents Weather Stations Pressure Air Temp Water Temp Dewpoint Dewpoint Depression Visibility Wind Speed Wind Dir Waves Ship Positions

Norfolk

Owner: Virginia Pilot Boat Corporation, Virginia Beach, VA. More information available from US FCC via Universal Licensing System and Coast Guard Vessel Documentation Center.

Last reported at 2016-Aug-24 07:23 UTC. Time now 2016-Aug-24 08:33 UTC.
Position N 36°55' W 076°05'.

Length 18 m; draft 1.5 m.

Type: Pilot. MMSI: 367512630.

Date/timePositionNaut miles runAvg speedWind from/ knotsBaromVisibWave heightAir tempDewpointWater temp
2016-Aug-24 07:23N 36°55' W 076°05'1 0.1
2016-Aug-23 21:27N 36°56' W 076°05'6 6.4
2016-Aug-23 20:27N 36°56' W 075°57'7 1.8
2016-Aug-23 16:33N 36°54' W 076°05'0 0.0
2016-Aug-23 15:33N 36°54' W 076°05'0 0.0
2016-Aug-23 14:33N 36°54' W 076°05'0 0.0
2016-Aug-23 13:33N 36°54' W 076°05'0 0.0
2016-Aug-23 12:33N 36°54' W 076°05'0 0.0
2016-Aug-23 11:33N 36°54' W 076°05'0 0.0
2016-Aug-23 10:33N 36°54' W 076°05'0 0.0
2016-Aug-23 08:11N 36°54' W 076°05'2 0.2
2016-Aug-22 23:33N 36°56' W 076°04'2 0.5
2016-Aug-22 20:12N 36°54' W 076°05'0 0.0
2016-Aug-22 12:32N 36°54' W 076°06'0 0.1
2016-Aug-22 11:25N 36°54' W 076°05'1 0.5
2016-Aug-22 08:19N 36°56' W 076°04'1 0.1
2016-Aug-21 20:31N 36°54' W 076°05'0 0.0
2016-Aug-21 19:13N 36°54' W 076°05'4 5.8
2016-Aug-21 18:32N 36°56' W 076°01'1 0.2
2016-Aug-21 14:32N 36°57' W 076°01'4 0.3
2016-Aug-21 00:24N 36°55' W 076°05'3 3.6
2016-Aug-20 23:28N 36°56' W 076°01'4 4.0
2016-Aug-20 22:26N 36°54' W 076°05'6 2.0
2016-Aug-20 19:24N 36°55' W 075°58'6 3.2
2016-Aug-20 17:30N 36°54' W 076°05'0 0.0
2016-Aug-20 16:33N 36°54' W 076°05'0 0.0
2016-Aug-20 15:33N 36°54' W 076°05'0 0.0
2016-Aug-20 14:32N 36°54' W 076°05'0 0.0
2016-Aug-20 13:32N 36°54' W 076°05'0 0.0
2016-Aug-20 12:32N 36°54' W 076°05'0 0.0
2016-Aug-20 07:31N 36°54' W 076°05'0 0.0
2016-Aug-20 06:18N 36°54' W 076°05'0 0.0
2016-Aug-19 23:27N 36°54' W 076°05'0 0.0
2016-Aug-19 21:33N 36°54' W 076°05'0 0.0
2016-Aug-19 20:31N 36°54' W 076°05'0 0.0
2016-Aug-19 19:33N 36°54' W 076°05'0 0.0
2016-Aug-19 18:29N 36°54' W 076°05'0 0.0
2016-Aug-19 17:15N 36°54' W 076°05'0 0.0
2016-Aug-19 16:23N 36°54' W 076°05'0 0.0
2016-Aug-19 15:11N 36°54' W 076°05'0 0.0
2016-Aug-19 14:16N 36°54' W 076°05'0 0.0
2016-Aug-19 13:17N 36°54' W 076°05'0 0.0
2016-Aug-19 12:32N 36°54' W 076°05'0 0.0
2016-Aug-19 11:27N 36°54' W 076°05'0 0.0
2016-Aug-19 09:19N 36°54' W 076°05'0 0.0
2016-Aug-19 07:23N 36°54' W 076°05'1 1.1
2016-Aug-19 06:23N 36°55' W 076°05'1 0.1
2016-Aug-18 19:26N 36°54' W 076°05'9 9.6
2016-Aug-18 18:30N 36°55' W 075°54'9 1.8
2016-Aug-18 13:31N 36°55' W 076°05'0 0.1
2016-Aug-18 12:32N 36°55' W 076°05'1 0.9
2016-Aug-18 11:33N 36°54' W 076°05'0 0.0
2016-Aug-18 10:33N 36°54' W 076°05'0 0.0
2016-Aug-18 04:26N 36°54' W 076°05'0 0.0
2016-Aug-18 03:31N 36°54' W 076°05'0 0.0
2016-Aug-18 01:29N 36°54' W 076°05'0 0.0
2016-Aug-18 00:17N 36°54' W 076°05'0 0.0
2016-Aug-17 23:33N 36°54' W 076°05'0 0.0
2016-Aug-17 22:32N 36°54' W 076°05'0 0.0
2016-Aug-17 21:33N 36°54' W 076°05'0 0.0
2016-Aug-17 20:32N 36°54' W 076°05'0 0.0
2016-Aug-17 19:33N 36°54' W 076°05'0 0.0
2016-Aug-17 18:33N 36°54' W 076°05'0 0.0
2016-Aug-17 17:33N 36°54' W 076°05'0 0.0
2016-Aug-17 16:33N 36°54' W 076°05'0 0.0
2016-Aug-17 15:33N 36°54' W 076°05'0 0.0
2016-Aug-17 14:33N 36°54' W 076°05'0 0.0
2016-Aug-17 13:29N 36°54' W 076°05'0 0.0
2016-Aug-17 12:33N 36°54' W 076°05'0 0.0
2016-Aug-17 11:32N 36°54' W 076°05'0 0.0
2016-Aug-16 22:23N 36°54' W 076°05'4 4.0
2016-Aug-16 21:29N 36°57' W 076°02'4 0.9
2016-Aug-16 17:16N 36°54' W 076°05'0 0.0
2016-Aug-16 13:19N 36°54' W 076°05'3 2.9
2016-Aug-16 12:25N 36°56' W 076°03'3 3.1
2016-Aug-16 11:33N 36°54' W 076°05'0 0.0
2016-Aug-16 10:33N 36°54' W 076°05'0 0.0
2016-Aug-16 07:11N 36°54' W 076°05'0 0.0
2016-Aug-16 01:13N 36°54' W 076°05'0 0.0
2016-Aug-15 20:07N 36°54' W 076°05'0 0.0
2016-Aug-14 19:28N 36°54' W 076°05'4 4.0
2016-Aug-14 18:32N 36°56' W 076°01'4 0.7
2016-Aug-14 13:21N 36°54' W 076°05'0 0.4
2016-Aug-14 12:33N 36°55' W 076°05'0 0.4
2016-Aug-14 11:30N 36°54' W 076°05'1 0.9
2016-Aug-14 10:33N 36°55' W 076°05'  

Dump ship's entire track history